sensor_id;sensor_type;location;lat;lon;timestamp;P1;durP1;ratioP1;P2;durP2;ratioP2
70153;SDS011;57519;51.494;-2.626;2022-08-19T00:01:25;5.72;;;3.03;;
70153;SDS011;57519;51.494;-2.626;2022-08-19T00:03:52;8.17;;;3.10;;
70153;SDS011;57519;51.494;-2.626;2022-08-19T00:06:17;6.30;;;2.90;;
70153;SDS011;57519;51.494;-2.626;2022-08-19T00:08:43;7.30;;;3.13;;
70153;SDS011;57519;51.494;-2.626;2022-08-19T00:11:08;8.30;;;3.17;;
70153;SDS011;57519;51.494;-2.626;2022-08-19T00:13:36;10.25;;;3.38;;
70153;SDS011;57519;51.494;-2.626;2022-08-19T00:16:04;7.40;;;2.85;;
70153;SDS011;57519;51.494;-2.626;2022-08-19T00:18:31;6.65;;;3.08;;
70153;SDS011;57519;51.494;-2.626;2022-08-19T00:20:57;9.27;;;3.50;;
70153;SDS011;57519;51.494;-2.626;2022-08-19T00:23:24;9.25;;;3.35;;
70153;SDS011;57519;51.494;-2.626;2022-08-19T00:25:50;9.23;;;3.13;;
70153;SDS011;57519;51.494;-2.626;2022-08-19T00:28:16;9.00;;;3.53;;
70153;SDS011;57519;51.494;-2.626;2022-08-19T00:30:41;11.65;;;3.60;;
70153;SDS011;57519;51.494;-2.626;2022-08-19T00:33:07;11.57;;;4.00;;
70153;SDS011;57519;51.494;-2.626;2022-08-19T00:35:33;13.93;;;4.00;;
70153;SDS011;57519;51.494;-2.626;2022-08-19T00:37:58;9.60;;;3.83;;
70153;SDS011;57519;51.494;-2.626;2022-08-19T00:40:24;8.98;;;3.85;;
70153;SDS011;57519;51.494;-2.626;2022-08-19T00:42:50;11.23;;;4.22;;
70153;SDS011;57519;51.494;-2.626;2022-08-19T00:45:20;11.38;;;3.63;;
70153;SDS011;57519;51.494;-2.626;2022-08-19T00:47:47;10.03;;;3.90;;
70153;SDS011;57519;51.494;-2.626;2022-08-19T00:50:13;13.98;;;3.85;;
70153;SDS011;57519;51.494;-2.626;2022-08-19T00:52:43;11.00;;;3.90;;
70153;SDS011;57519;51.494;-2.626;2022-08-19T00:55:24;7.88;;;2.88;;
70153;SDS011;57519;51.494;-2.626;2022-08-19T00:57:58;13.63;;;3.92;;
70153;SDS011;57519;51.494;-2.626;2022-08-19T01:00:27;7.53;;;3.42;;
70153;SDS011;57519;51.494;-2.626;2022-08-19T01:02:55;9.27;;;4.00;;
70153;SDS011;57519;51.494;-2.626;2022-08-19T01:05:23;10.87;;;3.93;;
70153;SDS011;57519;51.494;-2.626;2022-08-19T01:07:53;9.77;;;3.85;;
70153;SDS011;57519;51.494;-2.626;2022-08-19T01:10:22;6.15;;;3.25;;
70153;SDS011;57519;51.494;-2.626;2022-08-19T01:12:51;13.88;;;4.60;;
70153;SDS011;57519;51.494;-2.626;2022-08-19T01:15:29;12.15;;;3.85;;
70153;SDS011;57519;51.494;-2.626;2022-08-19T01:18:00;14.43;;;3.97;;
70153;SDS011;57519;51.494;-2.626;2022-08-19T01:20:29;12.55;;;3.83;;
70153;SDS011;57519;51.494;-2.626;2022-08-19T01:22:56;12.30;;;3.58;;
70153;SDS011;57519;51.494;-2.626;2022-08-19T01:25:30;9.27;;;3.80;;
70153;SDS011;57519;51.494;-2.626;2022-08-19T01:27:59;12.57;;;4.20;;
70153;SDS011;57519;51.494;-2.626;2022-08-19T01:30:29;8.50;;;3.78;;
70153;SDS011;57519;51.494;-2.626;2022-08-19T01:32:56;12.57;;;4.28;;
70153;SDS011;57519;51.494;-2.626;2022-08-19T01:35:24;13.35;;;5.03;;
70153;SDS011;57519;51.494;-2.626;2022-08-19T01:37:51;15.80;;;5.60;;
70153;SDS011;57519;51.494;-2.626;2022-08-19T01:40:19;8.73;;;4.37;;
70153;SDS011;57519;51.494;-2.626;2022-08-19T01:42:47;9.30;;;4.35;;
70153;SDS011;57519;51.494;-2.626;2022-08-19T01:45:19;9.40;;;4.32;;
70153;SDS011;57519;51.494;-2.626;2022-08-19T01:47:46;9.32;;;4.88;;
70153;SDS011;57519;51.494;-2.626;2022-08-19T01:50:12;9.37;;;5.33;;
70153;SDS011;57519;51.494;-2.626;2022-08-19T01:52:39;11.52;;;5.10;;
70153;SDS011;57519;51.494;-2.626;2022-08-19T01:55:07;12.00;;;5.73;;
70153;SDS011;57519;51.494;-2.626;2022-08-19T01:57:35;14.68;;;6.50;;
70153;SDS011;57519;51.494;-2.626;2022-08-19T02:00:03;16.77;;;6.78;;
70153;SDS011;57519;51.494;-2.626;2022-08-19T02:02:31;13.13;;;6.13;;
70153;SDS011;57519;51.494;-2.626;2022-08-19T02:04:59;13.73;;;5.95;;
70153;SDS011;57519;51.494;-2.626;2022-08-19T02:07:32;11.80;;;4.67;;
70153;SDS011;57519;51.494;-2.626;2022-08-19T02:09:57;17.45;;;6.47;;
70153;SDS011;57519;51.494;-2.626;2022-08-19T02:12:23;16.40;;;6.33;;
70153;SDS011;57519;51.494;-2.626;2022-08-19T02:14:48;16.70;;;6.20;;
70153;SDS011;57519;51.494;-2.626;2022-08-19T02:17:14;12.25;;;5.20;;
70153;SDS011;57519;51.494;-2.626;2022-08-19T02:19:40;14.87;;;5.37;;
70153;SDS011;57519;51.494;-2.626;2022-08-19T02:22:05;14.27;;;5.77;;
70153;SDS011;57519;51.494;-2.626;2022-08-19T02:24:31;14.13;;;5.53;;
70153;SDS011;57519;51.494;-2.626;2022-08-19T02:26:59;13.00;;;4.78;;
70153;SDS011;57519;51.494;-2.626;2022-08-19T02:29:40;10.98;;;5.13;;
70153;SDS011;57519;51.494;-2.626;2022-08-19T02:32:06;12.77;;;5.50;;
70153;SDS011;57519;51.494;-2.626;2022-08-19T02:34:31;10.98;;;4.50;;
70153;SDS011;57519;51.494;-2.626;2022-08-19T02:36:57;11.10;;;4.70;;
70153;SDS011;57519;51.494;-2.626;2022-08-19T02:39:22;11.10;;;4.65;;
70153;SDS011;57519;51.494;-2.626;2022-08-19T02:41:48;15.97;;;5.50;;
70153;SDS011;57519;51.494;-2.626;2022-08-19T02:44:14;12.35;;;5.30;;
70153;SDS011;57519;51.494;-2.626;2022-08-19T02:46:39;13.10;;;4.90;;
70153;SDS011;57519;51.494;-2.626;2022-08-19T02:49:06;12.98;;;5.03;;
70153;SDS011;57519;51.494;-2.626;2022-08-19T02:51:36;10.15;;;4.57;;
70153;SDS011;57519;51.494;-2.626;2022-08-19T02:54:04;11.97;;;4.73;;
70153;SDS011;57519;51.494;-2.626;2022-08-19T02:56:34;9.95;;;4.65;;
70153;SDS011;57519;51.494;-2.626;2022-08-19T02:59:00;13.38;;;4.95;;
70153;SDS011;57519;51.494;-2.626;2022-08-19T03:01:27;10.57;;;4.47;;
70153;SDS011;57519;51.494;-2.626;2022-08-19T03:04:11;13.65;;;4.97;;
70153;SDS011;57519;51.494;-2.626;2022-08-19T03:06:47;14.27;;;4.68;;
70153;SDS011;57519;51.494;-2.626;2022-08-19T03:09:13;12.27;;;4.32;;
70153;SDS011;57519;51.494;-2.626;2022-08-19T03:11:41;11.37;;;4.07;;
70153;SDS011;57519;51.494;-2.626;2022-08-19T03:14:07;14.98;;;4.88;;
70153;SDS011;57519;51.494;-2.626;2022-08-19T03:16:35;11.30;;;4.85;;
70153;SDS011;57519;51.494;-2.626;2022-08-19T03:19:09;7.90;;;3.80;;
70153;SDS011;57519;51.494;-2.626;2022-08-19T03:21:37;9.32;;;4.03;;
70153;SDS011;57519;51.494;-2.626;2022-08-19T03:24:05;12.60;;;4.65;;
70153;SDS011;57519;51.494;-2.626;2022-08-19T03:26:33;9.00;;;4.03;;
70153;SDS011;57519;51.494;-2.626;2022-08-19T03:29:03;13.75;;;4.40;;
70153;SDS011;57519;51.494;-2.626;2022-08-19T03:31:30;10.93;;;4.63;;
70153;SDS011;57519;51.494;-2.626;2022-08-19T03:33:57;13.43;;;4.63;;
70153;SDS011;57519;51.494;-2.626;2022-08-19T03:36:24;16.10;;;4.03;;
70153;SDS011;57519;51.494;-2.626;2022-08-19T03:38:59;11.88;;;4.25;;
70153;SDS011;57519;51.494;-2.626;2022-08-19T03:41:28;14.18;;;4.75;;
70153;SDS011;57519;51.494;-2.626;2022-08-19T03:43:58;12.97;;;4.47;;
70153;SDS011;57519;51.494;-2.626;2022-08-19T03:46:28;11.65;;;4.57;;
70153;SDS011;57519;51.494;-2.626;2022-08-19T03:48:57;11.82;;;4.53;;
70153;SDS011;57519;51.494;-2.626;2022-08-19T03:51:32;12.00;;;4.15;;
70153;SDS011;57519;51.494;-2.626;2022-08-19T03:54:01;12.63;;;5.20;;
70153;SDS011;57519;51.494;-2.626;2022-08-19T03:56:37;14.87;;;4.87;;
70153;SDS011;57519;51.494;-2.626;2022-08-19T03:59:05;13.07;;;5.40;;
70153;SDS011;57519;51.494;-2.626;2022-08-19T04:01:36;16.13;;;4.85;;
70153;SDS011;57519;51.494;-2.626;2022-08-19T04:04:01;11.73;;;5.37;;
70153;SDS011;57519;51.494;-2.626;2022-08-19T04:06:29;17.38;;;5.50;;
70153;SDS011;57519;51.494;-2.626;2022-08-19T04:09:01;15.73;;;5.38;;
70153;SDS011;57519;51.494;-2.626;2022-08-19T04:11:29;17.77;;;5.30;;
70153;SDS011;57519;51.494;-2.626;2022-08-19T04:14:12;11.73;;;5.25;;
70153;SDS011;57519;51.494;-2.626;2022-08-19T04:16:40;20.63;;;6.23;;
70153;SDS011;57519;51.494;-2.626;2022-08-19T04:19:06;13.82;;;5.40;;
70153;SDS011;57519;51.494;-2.626;2022-08-19T04:21:32;11.35;;;5.35;;
70153;SDS011;57519;51.494;-2.626;2022-08-19T04:23:58;15.17;;;5.80;;
70153;SDS011;57519;51.494;-2.626;2022-08-19T04:26:29;15.85;;;5.35;;
70153;SDS011;57519;51.494;-2.626;2022-08-19T04:28:59;8.75;;;5.10;;
70153;SDS011;57519;51.494;-2.626;2022-08-19T04:31:28;13.50;;;5.13;;
70153;SDS011;57519;51.494;-2.626;2022-08-19T04:34:01;19.27;;;6.20;;
70153;SDS011;57519;51.494;-2.626;2022-08-19T04:36:29;13.97;;;5.67;;
70153;SDS011;57519;51.494;-2.626;2022-08-19T04:38:59;14.93;;;4.95;;
70153;SDS011;57519;51.494;-2.626;2022-08-19T04:41:28;16.70;;;6.22;;
70153;SDS011;57519;51.494;-2.626;2022-08-19T04:44:12;14.93;;;5.53;;
70153;SDS011;57519;51.494;-2.626;2022-08-19T04:46:38;15.95;;;6.03;;
70153;SDS011;57519;51.494;-2.626;2022-08-19T04:49:07;19.00;;;5.73;;
70153;SDS011;57519;51.494;-2.626;2022-08-19T04:51:33;14.32;;;5.57;;
70153;SDS011;57519;51.494;-2.626;2022-08-19T04:54:00;16.63;;;6.20;;
70153;SDS011;57519;51.494;-2.626;2022-08-19T04:56:28;14.77;;;5.38;;
70153;SDS011;57519;51.494;-2.626;2022-08-19T04:58:54;18.35;;;6.15;;
70153;SDS011;57519;51.494;-2.626;2022-08-19T05:01:25;15.57;;;5.33;;
70153;SDS011;57519;51.494;-2.626;2022-08-19T05:03:57;17.33;;;5.68;;
70153;SDS011;57519;51.494;-2.626;2022-08-19T05:06:23;17.02;;;5.97;;
70153;SDS011;57519;51.494;-2.626;2022-08-19T05:08:50;13.50;;;5.18;;
70153;SDS011;57519;51.494;-2.626;2022-08-19T05:11:17;12.65;;;6.05;;
70153;SDS011;57519;51.494;-2.626;2022-08-19T05:13:50;24.47;;;6.30;;
70153;SDS011;57519;51.494;-2.626;2022-08-19T05:16:28;15.85;;;5.85;;
70153;SDS011;57519;51.494;-2.626;2022-08-19T05:18:54;16.33;;;6.40;;
70153;SDS011;57519;51.494;-2.626;2022-08-19T05:21:39;13.32;;;5.90;;
70153;SDS011;57519;51.494;-2.626;2022-08-19T05:24:24;13.63;;;5.90;;
70153;SDS011;57519;51.494;-2.626;2022-08-19T05:26:52;18.00;;;6.30;;
70153;SDS011;57519;51.494;-2.626;2022-08-19T05:29:25;16.05;;;6.40;;
70153;SDS011;57519;51.494;-2.626;2022-08-19T05:31:53;15.70;;;6.50;;
70153;SDS011;57519;51.494;-2.626;2022-08-19T05:34:25;10.20;;;5.63;;
70153;SDS011;57519;51.494;-2.626;2022-08-19T05:36:58;12.70;;;6.25;;
70153;SDS011;57519;51.494;-2.626;2022-08-19T05:39:26;12.70;;;5.43;;
70153;SDS011;57519;51.494;-2.626;2022-08-19T05:41:55;16.45;;;6.20;;
70153;SDS011;57519;51.494;-2.626;2022-08-19T05:44:23;16.50;;;5.95;;
70153;SDS011;57519;51.494;-2.626;2022-08-19T05:46:53;11.88;;;5.30;;
70153;SDS011;57519;51.494;-2.626;2022-08-19T05:49:21;12.35;;;5.65;;
70153;SDS011;57519;51.494;-2.626;2022-08-19T05:51:47;13.83;;;5.93;;
70153;SDS011;57519;51.494;-2.626;2022-08-19T05:54:15;12.43;;;5.70;;
70153;SDS011;57519;51.494;-2.626;2022-08-19T05:56:48;19.73;;;6.60;;
70153;SDS011;57519;51.494;-2.626;2022-08-19T05:59:14;13.48;;;5.70;;
70153;SDS011;57519;51.494;-2.626;2022-08-19T06:01:45;14.80;;;5.38;;
70153;SDS011;57519;51.494;-2.626;2022-08-19T06:04:12;17.60;;;5.90;;
70153;SDS011;57519;51.494;-2.626;2022-08-19T06:06:44;12.88;;;5.80;;
70153;SDS011;57519;51.494;-2.626;2022-08-19T06:09:13;12.35;;;6.38;;
70153;SDS011;57519;51.494;-2.626;2022-08-19T06:11:40;14.68;;;5.05;;
70153;SDS011;57519;51.494;-2.626;2022-08-19T06:14:12;13.63;;;4.97;;
70153;SDS011;57519;51.494;-2.626;2022-08-19T06:16:46;12.38;;;5.18;;
70153;SDS011;57519;51.494;-2.626;2022-08-19T06:19:14;13.52;;;5.38;;
70153;SDS011;57519;51.494;-2.626;2022-08-19T06:21:44;11.25;;;4.97;;
70153;SDS011;57519;51.494;-2.626;2022-08-19T06:24:12;11.45;;;4.85;;
70153;SDS011;57519;51.494;-2.626;2022-08-19T06:26:43;11.37;;;4.23;;
70153;SDS011;57519;51.494;-2.626;2022-08-19T06:29:19;11.45;;;5.07;;
70153;SDS011;57519;51.494;-2.626;2022-08-19T06:31:48;11.55;;;4.97;;
70153;SDS011;57519;51.494;-2.626;2022-08-19T06:34:16;11.48;;;4.88;;
70153;SDS011;57519;51.494;-2.626;2022-08-19T06:36:50;13.80;;;5.32;;
70153;SDS011;57519;51.494;-2.626;2022-08-19T06:39:23;12.83;;;5.03;;
70153;SDS011;57519;51.494;-2.626;2022-08-19T06:41:52;11.32;;;4.53;;
70153;SDS011;57519;51.494;-2.626;2022-08-19T06:44:21;9.18;;;4.65;;
70153;SDS011;57519;51.494;-2.626;2022-08-19T06:46:50;13.02;;;4.32;;
70153;SDS011;57519;51.494;-2.626;2022-08-19T06:49:18;11.27;;;5.05;;
70153;SDS011;57519;51.494;-2.626;2022-08-19T06:51:44;12.70;;;4.23;;
70153;SDS011;57519;51.494;-2.626;2022-08-19T06:54:15;10.88;;;4.22;;
70153;SDS011;57519;51.494;-2.626;2022-08-19T06:56:42;12.13;;;4.15;;
70153;SDS011;57519;51.494;-2.626;2022-08-19T06:59:10;11.98;;;4.80;;
70153;SDS011;57519;51.494;-2.626;2022-08-19T07:01:41;12.80;;;4.35;;
70153;SDS011;57519;51.494;-2.626;2022-08-19T07:04:11;13.13;;;4.33;;
70153;SDS011;57519;51.494;-2.626;2022-08-19T07:06:37;9.50;;;4.20;;
70153;SDS011;57519;51.494;-2.626;2022-08-19T07:09:03;9.25;;;4.38;;
70153;SDS011;57519;51.494;-2.626;2022-08-19T07:11:30;17.43;;;4.73;;
70153;SDS011;57519;51.494;-2.626;2022-08-19T07:14:01;12.32;;;4.32;;
70153;SDS011;57519;51.494;-2.626;2022-08-19T07:16:27;14.13;;;4.75;;
70153;SDS011;57519;51.494;-2.626;2022-08-19T07:18:53;9.10;;;3.90;;
70153;SDS011;57519;51.494;-2.626;2022-08-19T07:21:23;13.75;;;4.57;;
70153;SDS011;57519;51.494;-2.626;2022-08-19T07:23:54;14.63;;;5.03;;
70153;SDS011;57519;51.494;-2.626;2022-08-19T07:26:23;11.73;;;4.60;;
70153;SDS011;57519;51.494;-2.626;2022-08-19T07:28:51;9.65;;;4.15;;
70153;SDS011;57519;51.494;-2.626;2022-08-19T07:31:22;13.60;;;4.07;;
70153;SDS011;57519;51.494;-2.626;2022-08-19T07:33:49;13.80;;;4.32;;
70153;SDS011;57519;51.494;-2.626;2022-08-19T07:36:20;12.20;;;4.23;;
70153;SDS011;57519;51.494;-2.626;2022-08-19T07:38:52;13.40;;;4.55;;
70153;SDS011;57519;51.494;-2.626;2022-08-19T07:41:23;12.65;;;4.80;;
70153;SDS011;57519;51.494;-2.626;2022-08-19T07:43:50;12.60;;;4.20;;
70153;SDS011;57519;51.494;-2.626;2022-08-19T07:46:17;14.52;;;4.22;;
70153;SDS011;57519;51.494;-2.626;2022-08-19T07:48:43;9.93;;;4.23;;
70153;SDS011;57519;51.494;-2.626;2022-08-19T07:51:14;12.93;;;4.40;;
70153;SDS011;57519;51.494;-2.626;2022-08-19T07:53:44;16.08;;;4.63;;
70153;SDS011;57519;51.494;-2.626;2022-08-19T07:56:11;13.30;;;4.40;;
70153;SDS011;57519;51.494;-2.626;2022-08-19T07:58:38;11.80;;;4.13;;
70153;SDS011;57519;51.494;-2.626;2022-08-19T08:01:06;16.40;;;4.37;;
70153;SDS011;57519;51.494;-2.626;2022-08-19T08:03:35;11.00;;;3.83;;
70153;SDS011;57519;51.494;-2.626;2022-08-19T08:06:20;13.82;;;4.47;;
70153;SDS011;57519;51.494;-2.626;2022-08-19T08:09:13;12.13;;;4.50;;
70153;SDS011;57519;51.494;-2.626;2022-08-19T08:11:53;13.85;;;4.55;;
70153;SDS011;57519;51.494;-2.626;2022-08-19T08:14:36;10.73;;;3.87;;
70153;SDS011;57519;51.494;-2.626;2022-08-19T08:17:09;10.40;;;3.80;;
70153;SDS011;57519;51.494;-2.626;2022-08-19T08:19:35;9.45;;;3.78;;
70153;SDS011;57519;51.494;-2.626;2022-08-19T08:22:03;12.57;;;4.55;;
70153;SDS011;57519;51.494;-2.626;2022-08-19T08:25:06;9.63;;;3.97;;
70153;SDS011;57519;51.494;-2.626;2022-08-19T08:27:38;13.37;;;4.13;;
70153;SDS011;57519;51.494;-2.626;2022-08-19T08:30:14;18.02;;;5.00;;
70153;SDS011;57519;51.494;-2.626;2022-08-19T08:32:45;10.88;;;4.35;;
70153;SDS011;57519;51.494;-2.626;2022-08-19T08:35:12;9.80;;;4.30;;
70153;SDS011;57519;51.494;-2.626;2022-08-19T08:37:40;13.85;;;4.15;;
70153;SDS011;57519;51.494;-2.626;2022-08-19T08:46:19;15.07;;;4.35;;
70153;SDS011;57519;51.494;-2.626;2022-08-19T08:52:02;14.85;;;5.43;;
70153;SDS011;57519;51.494;-2.626;2022-08-19T08:54:35;11.45;;;3.95;;
70153;SDS011;57519;51.494;-2.626;2022-08-19T08:57:04;12.82;;;3.80;;
70153;SDS011;57519;51.494;-2.626;2022-08-19T08:59:45;14.38;;;4.10;;
70153;SDS011;57519;51.494;-2.626;2022-08-19T09:02:18;12.13;;;4.30;;
70153;SDS011;57519;51.494;-2.626;2022-08-19T09:04:44;10.50;;;3.63;;
70153;SDS011;57519;51.494;-2.626;2022-08-19T09:13:21;12.35;;;4.25;;
70153;SDS011;57519;51.494;-2.626;2022-08-19T09:16:22;11.93;;;4.00;;
70153;SDS011;57519;51.494;-2.626;2022-08-19T09:18:54;9.30;;;3.90;;
70153;SDS011;57519;51.494;-2.626;2022-08-19T09:21:39;11.52;;;4.22;;
70153;SDS011;57519;51.494;-2.626;2022-08-19T09:24:07;17.17;;;4.60;;
70153;SDS011;57519;51.494;-2.626;2022-08-19T09:26:38;10.95;;;4.78;;
70153;SDS011;57519;51.494;-2.626;2022-08-19T09:29:03;13.03;;;4.27;;
70153;SDS011;57519;51.494;-2.626;2022-08-19T09:31:30;10.43;;;4.03;;
70153;SDS011;57519;51.494;-2.626;2022-08-19T09:33:57;17.02;;;4.55;;
70153;SDS011;57519;51.494;-2.626;2022-08-19T09:36:24;10.65;;;4.32;;
70153;SDS011;57519;51.494;-2.626;2022-08-19T09:38:54;10.60;;;3.85;;
70153;SDS011;57519;51.494;-2.626;2022-08-19T09:41:22;14.33;;;4.03;;
70153;SDS011;57519;51.494;-2.626;2022-08-19T09:43:50;9.95;;;4.10;;
70153;SDS011;57519;51.494;-2.626;2022-08-19T09:46:19;10.75;;;3.80;;
70153;SDS011;57519;51.494;-2.626;2022-08-19T09:48:48;14.73;;;4.68;;
70153;SDS011;57519;51.494;-2.626;2022-08-19T09:51:20;11.80;;;4.00;;
70153;SDS011;57519;51.494;-2.626;2022-08-19T09:53:49;13.40;;;4.07;;
70153;SDS011;57519;51.494;-2.626;2022-08-19T09:56:17;13.73;;;4.15;;
70153;SDS011;57519;51.494;-2.626;2022-08-19T09:58:43;9.07;;;3.75;;
70153;SDS011;57519;51.494;-2.626;2022-08-19T10:01:15;12.95;;;3.95;;
70153;SDS011;57519;51.494;-2.626;2022-08-19T10:03:46;9.18;;;3.65;;
70153;SDS011;57519;51.494;-2.626;2022-08-19T10:06:17;13.50;;;5.10;;
70153;SDS011;57519;51.494;-2.626;2022-08-19T10:08:53;14.70;;;4.18;;
70153;SDS011;57519;51.494;-2.626;2022-08-19T10:11:19;12.82;;;3.97;;
70153;SDS011;57519;51.494;-2.626;2022-08-19T10:13:45;13.18;;;4.15;;
70153;SDS011;57519;51.494;-2.626;2022-08-19T10:16:14;13.27;;;4.18;;
70153;SDS011;57519;51.494;-2.626;2022-08-19T10:18:59;15.13;;;5.13;;
70153;SDS011;57519;51.494;-2.626;2022-08-19T10:21:27;11.30;;;3.78;;
70153;SDS011;57519;51.494;-2.626;2022-08-19T10:23:56;13.40;;;4.22;;
70153;SDS011;57519;51.494;-2.626;2022-08-19T10:26:25;15.73;;;4.63;;
70153;SDS011;57519;51.494;-2.626;2022-08-19T10:29:04;11.57;;;4.07;;
70153;SDS011;57519;51.494;-2.626;2022-08-19T10:31:32;16.87;;;4.30;;
70153;SDS011;57519;51.494;-2.626;2022-08-19T10:34:00;10.05;;;4.13;;
70153;SDS011;57519;51.494;-2.626;2022-08-19T10:36:31;9.93;;;3.85;;
70153;SDS011;57519;51.494;-2.626;2022-08-19T10:39:00;9.90;;;3.58;;
70153;SDS011;57519;51.494;-2.626;2022-08-19T10:41:30;12.50;;;4.05;;
70153;SDS011;57519;51.494;-2.626;2022-08-19T10:44:03;16.77;;;5.37;;
70153;SDS011;57519;51.494;-2.626;2022-08-19T10:46:31;10.30;;;3.70;;
70153;SDS011;57519;51.494;-2.626;2022-08-19T10:49:08;13.48;;;4.30;;
70153;SDS011;57519;51.494;-2.626;2022-08-19T10:51:38;13.15;;;3.47;;
70153;SDS011;57519;51.494;-2.626;2022-08-19T10:54:23;14.43;;;3.80;;
70153;SDS011;57519;51.494;-2.626;2022-08-19T10:57:09;11.53;;;3.90;;
70153;SDS011;57519;51.494;-2.626;2022-08-19T10:59:35;14.68;;;4.93;;
70153;SDS011;57519;51.494;-2.626;2022-08-19T11:02:03;15.10;;;4.63;;
70153;SDS011;57519;51.494;-2.626;2022-08-19T11:04:30;11.55;;;4.15;;
70153;SDS011;57519;51.494;-2.626;2022-08-19T11:06:56;9.45;;;3.60;;
70153;SDS011;57519;51.494;-2.626;2022-08-19T11:09:23;12.18;;;4.00;;
70153;SDS011;57519;51.494;-2.626;2022-08-19T11:11:58;9.30;;;3.37;;
70153;SDS011;57519;51.494;-2.626;2022-08-19T11:14:24;10.90;;;3.85;;
70153;SDS011;57519;51.494;-2.626;2022-08-19T11:16:53;16.57;;;4.27;;
70153;SDS011;57519;51.494;-2.626;2022-08-19T11:19:22;14.32;;;4.38;;
70153;SDS011;57519;51.494;-2.626;2022-08-19T11:21:52;11.02;;;4.40;;
70153;SDS011;57519;51.494;-2.626;2022-08-19T11:24:20;16.50;;;4.03;;
70153;SDS011;57519;51.494;-2.626;2022-08-19T11:26:48;13.15;;;4.75;;
70153;SDS011;57519;51.494;-2.626;2022-08-19T11:29:18;13.67;;;4.10;;
70153;SDS011;57519;51.494;-2.626;2022-08-19T11:31:47;11.57;;;3.97;;
70153;SDS011;57519;51.494;-2.626;2022-08-19T11:34:19;10.27;;;3.97;;
70153;SDS011;57519;51.494;-2.626;2022-08-19T11:36:52;16.83;;;4.68;;
70153;SDS011;57519;51.494;-2.626;2022-08-19T11:39:19;11.27;;;4.30;;
70153;SDS011;57519;51.494;-2.626;2022-08-19T11:41:46;12.70;;;3.80;;
70153;SDS011;57519;51.494;-2.626;2022-08-19T11:44:12;11.40;;;4.10;;
70153;SDS011;57519;51.494;-2.626;2022-08-19T11:46:39;9.95;;;3.80;;
70153;SDS011;57519;51.494;-2.626;2022-08-19T11:49:06;12.97;;;3.80;;
70153;SDS011;57519;51.494;-2.626;2022-08-19T11:51:32;11.77;;;4.10;;
70153;SDS011;57519;51.494;-2.626;2022-08-19T11:53:59;13.80;;;4.78;;
70153;SDS011;57519;51.494;-2.626;2022-08-19T11:56:26;9.85;;;3.70;;
70153;SDS011;57519;51.494;-2.626;2022-08-19T11:59:13;11.20;;;3.37;;
70153;SDS011;57519;51.494;-2.626;2022-08-19T12:01:38;10.60;;;3.67;;
70153;SDS011;57519;51.494;-2.626;2022-08-19T12:04:05;11.03;;;3.80;;
70153;SDS011;57519;51.494;-2.626;2022-08-19T12:06:32;9.43;;;3.17;;
70153;SDS011;57519;51.494;-2.626;2022-08-19T12:09:00;13.10;;;4.35;;
70153;SDS011;57519;51.494;-2.626;2022-08-19T12:11:35;17.20;;;3.80;;
70153;SDS011;57519;51.494;-2.626;2022-08-19T12:14:20;13.23;;;3.97;;
70153;SDS011;57519;51.494;-2.626;2022-08-19T12:16:46;13.07;;;4.50;;
70153;SDS011;57519;51.494;-2.626;2022-08-19T12:19:12;12.23;;;3.58;;
70153;SDS011;57519;51.494;-2.626;2022-08-19T12:21:37;13.37;;;3.93;;
70153;SDS011;57519;51.494;-2.626;2022-08-19T12:24:03;13.63;;;3.45;;
70153;SDS011;57519;51.494;-2.626;2022-08-19T12:26:30;10.27;;;3.67;;
70153;SDS011;57519;51.494;-2.626;2022-08-19T12:28:59;10.27;;;3.53;;
70153;SDS011;57519;51.494;-2.626;2022-08-19T12:31:26;12.43;;;3.38;;
70153;SDS011;57519;51.494;-2.626;2022-08-19T12:33:53;13.48;;;4.07;;
70153;SDS011;57519;51.494;-2.626;2022-08-19T12:36:19;9.47;;;3.33;;
70153;SDS011;57519;51.494;-2.626;2022-08-19T12:38:45;11.90;;;3.47;;
70153;SDS011;57519;51.494;-2.626;2022-08-19T12:41:17;10.50;;;3.33;;
70153;SDS011;57519;51.494;-2.626;2022-08-19T12:43:46;9.82;;;3.45;;
70153;SDS011;57519;51.494;-2.626;2022-08-19T12:46:14;11.83;;;3.67;;
70153;SDS011;57519;51.494;-2.626;2022-08-19T12:48:39;10.68;;;3.20;;
70153;SDS011;57519;51.494;-2.626;2022-08-19T12:51:10;9.90;;;3.63;;
70153;SDS011;57519;51.494;-2.626;2022-08-19T12:53:39;12.10;;;3.87;;
70153;SDS011;57519;51.494;-2.626;2022-08-19T12:56:09;13.32;;;3.92;;
70153;SDS011;57519;51.494;-2.626;2022-08-19T12:58:44;9.82;;;3.10;;
70153;SDS011;57519;51.494;-2.626;2022-08-19T13:01:11;12.50;;;4.38;;
70153;SDS011;57519;51.494;-2.626;2022-08-19T13:03:45;12.35;;;4.15;;
70153;SDS011;57519;51.494;-2.626;2022-08-19T13:06:12;13.30;;;4.13;;
70153;SDS011;57519;51.494;-2.626;2022-08-19T13:08:41;13.60;;;3.95;;
70153;SDS011;57519;51.494;-2.626;2022-08-19T13:11:11;7.47;;;3.33;;
70153;SDS011;57519;51.494;-2.626;2022-08-19T13:13:40;11.55;;;4.93;;
70153;SDS011;57519;51.494;-2.626;2022-08-19T13:16:07;11.35;;;3.60;;
70153;SDS011;57519;51.494;-2.626;2022-08-19T13:18:38;12.27;;;4.00;;
70153;SDS011;57519;51.494;-2.626;2022-08-19T13:21:05;9.20;;;3.15;;
70153;SDS011;57519;51.494;-2.626;2022-08-19T13:23:32;10.77;;;4.53;;
70153;SDS011;57519;51.494;-2.626;2022-08-19T13:26:00;12.07;;;4.15;;
70153;SDS011;57519;51.494;-2.626;2022-08-19T13:28:27;8.73;;;3.25;;
70153;SDS011;57519;51.494;-2.626;2022-08-19T13:31:14;13.33;;;3.00;;
70153;SDS011;57519;51.494;-2.626;2022-08-19T13:34:01;11.05;;;3.78;;
70153;SDS011;57519;51.494;-2.626;2022-08-19T13:36:30;8.27;;;3.35;;
70153;SDS011;57519;51.494;-2.626;2022-08-19T13:38:56;12.10;;;3.80;;
70153;SDS011;57519;51.494;-2.626;2022-08-19T13:41:27;10.77;;;3.38;;
70153;SDS011;57519;51.494;-2.626;2022-08-19T13:43:53;9.13;;;3.60;;
70153;SDS011;57519;51.494;-2.626;2022-08-19T13:46:19;15.77;;;4.10;;
70153;SDS011;57519;51.494;-2.626;2022-08-19T13:48:45;8.30;;;3.13;;
70153;SDS011;57519;51.494;-2.626;2022-08-19T13:51:13;11.05;;;3.08;;
70153;SDS011;57519;51.494;-2.626;2022-08-19T13:53:41;11.75;;;4.32;;
70153;SDS011;57519;51.494;-2.626;2022-08-19T13:56:08;10.67;;;3.33;;
70153;SDS011;57519;51.494;-2.626;2022-08-19T13:58:36;8.80;;;2.53;;
70153;SDS011;57519;51.494;-2.626;2022-08-19T14:01:05;6.60;;;3.03;;
70153;SDS011;57519;51.494;-2.626;2022-08-19T14:03:32;14.20;;;3.30;;
70153;SDS011;57519;51.494;-2.626;2022-08-19T14:06:00;10.45;;;3.22;;
70153;SDS011;57519;51.494;-2.626;2022-08-19T14:08:26;9.53;;;3.40;;
70153;SDS011;57519;51.494;-2.626;2022-08-19T14:10:54;8.85;;;3.22;;
70153;SDS011;57519;51.494;-2.626;2022-08-19T14:13:30;9.18;;;3.00;;
70153;SDS011;57519;51.494;-2.626;2022-08-19T14:16:00;8.40;;;2.97;;
70153;SDS011;57519;51.494;-2.626;2022-08-19T14:18:25;6.18;;;2.92;;
70153;SDS011;57519;51.494;-2.626;2022-08-19T14:20:51;11.23;;;2.67;;
70153;SDS011;57519;51.494;-2.626;2022-08-19T14:23:19;8.25;;;3.50;;
70153;SDS011;57519;51.494;-2.626;2022-08-19T14:25:46;9.47;;;2.93;;
70153;SDS011;57519;51.494;-2.626;2022-08-19T14:28:16;7.97;;;2.95;;
70153;SDS011;57519;51.494;-2.626;2022-08-19T14:31:05;8.00;;;3.00;;
70153;SDS011;57519;51.494;-2.626;2022-08-19T14:33:35;11.60;;;3.57;;
70153;SDS011;57519;51.494;-2.626;2022-08-19T14:36:06;10.60;;;3.90;;
70153;SDS011;57519;51.494;-2.626;2022-08-19T14:38:34;5.90;;;3.25;;
70153;SDS011;57519;51.494;-2.626;2022-08-19T14:41:07;10.88;;;3.10;;
70153;SDS011;57519;51.494;-2.626;2022-08-19T14:43:53;6.82;;;2.90;;
70153;SDS011;57519;51.494;-2.626;2022-08-19T14:46:23;6.73;;;2.73;;
70153;SDS011;57519;51.494;-2.626;2022-08-19T14:48:54;7.43;;;2.72;;
70153;SDS011;57519;51.494;-2.626;2022-08-19T14:51:24;5.20;;;3.17;;
70153;SDS011;57519;51.494;-2.626;2022-08-19T14:53:51;6.30;;;2.42;;